sensor_id;sensor_type;location;lat;lon;timestamp;pressure;altitude;pressure_sealevel;temperature;humidity
33280;BME280;20403;43.114;12.434;2023-03-21T00:00:24;99311.72;;;9.74;100.00
33280;BME280;20403;43.114;12.434;2023-03-21T00:02:49;99308.28;;;9.80;100.00
33280;BME280;20403;43.114;12.434;2023-03-21T00:05:15;99301.69;;;9.78;100.00
33280;BME280;20403;43.114;12.434;2023-03-21T00:07:40;99303.31;;;9.72;100.00
33280;BME280;20403;43.114;12.434;2023-03-21T00:10:06;99300.97;;;9.64;100.00
33280;BME280;20403;43.114;12.434;2023-03-21T00:12:32;99294.13;;;9.70;100.00
33280;BME280;20403;43.114;12.434;2023-03-21T00:15:05;99290.47;;;9.77;100.00
33280;BME280;20403;43.114;12.434;2023-03-21T00:17:32;99295.75;;;9.71;100.00
33280;BME280;20403;43.114;12.434;2023-03-21T00:19:59;99283.66;;;9.76;100.00
33280;BME280;20403;43.114;12.434;2023-03-21T00:22:25;99292.06;;;9.78;100.00
33280;BME280;20403;43.114;12.434;2023-03-21T00:24:52;99285.63;;;9.81;100.00
33280;BME280;20403;43.114;12.434;2023-03-21T00:27:17;99287.41;;;9.87;100.00
33280;BME280;20403;43.114;12.434;2023-03-21T00:29:46;99291.59;;;9.88;100.00
33280;BME280;20403;43.114;12.434;2023-03-21T00:32:16;99286.22;;;9.83;100.00
33280;BME280;20403;43.114;12.434;2023-03-21T00:34:42;99283.22;;;9.79;100.00
33280;BME280;20403;43.114;12.434;2023-03-21T00:37:09;99282.25;;;9.80;100.00
33280;BME280;20403;43.114;12.434;2023-03-21T00:39:36;99287.28;;;9.75;100.00
33280;BME280;20403;43.114;12.434;2023-03-21T00:42:02;99283.66;;;9.76;100.00
33280;BME280;20403;43.114;12.434;2023-03-21T00:44:28;99276.91;;;9.68;100.00
33280;BME280;20403;43.114;12.434;2023-03-21T00:46:53;99267.28;;;9.69;100.00
33280;BME280;20403;43.114;12.434;2023-03-21T00:49:19;99276.50;;;9.72;100.00
33280;BME280;20403;43.114;12.434;2023-03-21T00:51:47;99265.28;;;9.71;100.00
33280;BME280;20403;43.114;12.434;2023-03-21T00:54:16;99264.84;;;9.74;100.00
33280;BME280;20403;43.114;12.434;2023-03-21T00:56:41;99258.47;;;9.70;100.00
33280;BME280;20403;43.114;12.434;2023-03-21T00:59:07;99262.59;;;9.84;100.00
33280;BME280;20403;43.114;12.434;2023-03-21T01:01:32;99258.13;;;9.92;100.00
33280;BME280;20403;43.114;12.434;2023-03-21T01:03:59;99258.00;;;9.80;100.00
33280;BME280;20403;43.114;12.434;2023-03-21T01:06:29;99261.50;;;9.92;100.00
33280;BME280;20403;43.114;12.434;2023-03-21T01:08:54;99253.84;;;9.97;100.00
33280;BME280;20403;43.114;12.434;2023-03-21T01:11:27;99253.53;;;9.87;100.00
33280;BME280;20403;43.114;12.434;2023-03-21T01:13:53;99250.31;;;9.92;100.00
33280;BME280;20403;43.114;12.434;2023-03-21T01:16:19;99248.75;;;9.84;100.00
33280;BME280;20403;43.114;12.434;2023-03-21T01:18:44;99251.03;;;9.99;100.00
33280;BME280;20403;43.114;12.434;2023-03-21T01:21:12;99239.00;;;9.98;100.00
33280;BME280;20403;43.114;12.434;2023-03-21T01:23:39;99235.34;;;10.05;100.00
33280;BME280;20403;43.114;12.434;2023-03-21T01:26:06;99231.94;;;10.05;100.00
33280;BME280;20403;43.114;12.434;2023-03-21T01:28:36;99228.78;;;10.03;100.00
33280;BME280;20403;43.114;12.434;2023-03-21T01:31:02;99219.34;;;10.02;100.00
33280;BME280;20403;43.114;12.434;2023-03-21T01:33:28;99224.94;;;10.05;100.00
33280;BME280;20403;43.114;12.434;2023-03-21T01:35:53;99217.47;;;10.09;100.00
33280;BME280;20403;43.114;12.434;2023-03-21T01:38:19;99217.84;;;10.13;100.00
33280;BME280;20403;43.114;12.434;2023-03-21T01:40:46;99216.94;;;10.00;100.00
33280;BME280;20403;43.114;12.434;2023-03-21T01:43:29;99218.13;;;10.04;100.00
33280;BME280;20403;43.114;12.434;2023-03-21T01:48:49;99207.84;;;10.09;100.00
33280;BME280;20403;43.114;12.434;2023-03-21T01:51:16;99204.28;;;10.04;100.00
33280;BME280;20403;43.114;12.434;2023-03-21T01:53:42;99206.47;;;10.07;100.00
33280;BME280;20403;43.114;12.434;2023-03-21T01:56:16;99209.25;;;10.12;100.00
33280;BME280;20403;43.114;12.434;2023-03-21T01:58:42;99207.44;;;10.13;100.00
33280;BME280;20403;43.114;12.434;2023-03-21T02:01:09;99204.31;;;10.22;100.00
33280;BME280;20403;43.114;12.434;2023-03-21T02:03:38;99200.59;;;10.12;100.00
33280;BME280;20403;43.114;12.434;2023-03-21T02:06:17;99197.34;;;10.16;100.00
33280;BME280;20403;43.114;12.434;2023-03-21T02:08:44;99189.25;;;10.06;100.00
33280;BME280;20403;43.114;12.434;2023-03-21T02:11:10;99190.69;;;10.02;100.00
33280;BME280;20403;43.114;12.434;2023-03-21T02:13:36;99192.44;;;10.08;100.00
33280;BME280;20403;43.114;12.434;2023-03-21T02:16:15;99190.53;;;9.97;100.00
33280;BME280;20403;43.114;12.434;2023-03-21T02:34:23;99179.19;;;9.66;100.00
33280;BME280;20403;43.114;12.434;2023-03-21T02:37:28;99170.31;;;9.74;100.00
33280;BME280;20403;43.114;12.434;2023-03-21T02:40:07;99167.28;;;9.77;100.00
33280;BME280;20403;43.114;12.434;2023-03-21T02:43:19;99172.88;;;9.80;100.00
33280;BME280;20403;43.114;12.434;2023-03-21T02:48:24;99162.19;;;9.63;100.00
33280;BME280;20403;43.114;12.434;2023-03-21T02:50:56;99152.72;;;9.69;100.00
33280;BME280;20403;43.114;12.434;2023-03-21T02:53:26;99148.50;;;9.68;100.00
33280;BME280;20403;43.114;12.434;2023-03-21T02:55:52;99153.81;;;9.61;100.00
33280;BME280;20403;43.114;12.434;2023-03-21T02:58:21;99143.00;;;9.58;100.00
33280;BME280;20403;43.114;12.434;2023-03-21T03:00:49;99149.59;;;9.60;100.00
33280;BME280;20403;43.114;12.434;2023-03-21T03:03:19;99147.53;;;9.69;100.00
33280;BME280;20403;43.114;12.434;2023-03-21T03:05:49;99140.06;;;9.73;100.00
33280;BME280;20403;43.114;12.434;2023-03-21T03:13:25;99146.31;;;9.46;100.00
33280;BME280;20403;43.114;12.434;2023-03-21T03:21:19;99143.38;;;9.11;100.00
33280;BME280;20403;43.114;12.434;2023-03-21T03:24:04;99140.44;;;9.01;100.00
33280;BME280;20403;43.114;12.434;2023-03-21T03:26:35;99146.03;;;9.04;100.00
33280;BME280;20403;43.114;12.434;2023-03-21T03:29:11;99133.97;;;9.10;100.00
33280;BME280;20403;43.114;12.434;2023-03-21T03:31:41;99138.00;;;9.06;100.00
33280;BME280;20403;43.114;12.434;2023-03-21T03:34:12;99129.78;;;9.09;100.00
33280;BME280;20403;43.114;12.434;2023-03-21T03:36:42;99138.00;;;9.06;100.00
33280;BME280;20403;43.114;12.434;2023-03-21T03:39:10;99136.78;;;9.09;100.00
33280;BME280;20403;43.114;12.434;2023-03-21T03:41:44;99133.94;;;8.85;100.00
33280;BME280;20403;43.114;12.434;2023-03-21T03:44:11;99133.97;;;8.78;100.00
33280;BME280;20403;43.114;12.434;2023-03-21T03:49:38;99136.56;;;8.85;100.00
33280;BME280;20403;43.114;12.434;2023-03-21T03:52:08;99139.72;;;8.87;100.00
33280;BME280;20403;43.114;12.434;2023-03-21T03:54:42;99146.88;;;8.92;100.00
33280;BME280;20403;43.114;12.434;2023-03-21T03:57:09;99151.28;;;8.91;100.00
33280;BME280;20403;43.114;12.434;2023-03-21T03:59:37;99153.81;;;9.04;100.00
33280;BME280;20403;43.114;12.434;2023-03-21T04:02:03;99151.09;;;8.93;100.00
33280;BME280;20403;43.114;12.434;2023-03-21T04:04:29;99156.91;;;8.88;100.00
33280;BME280;20403;43.114;12.434;2023-03-21T04:06:56;99156.81;;;8.70;100.00
33280;BME280;20403;43.114;12.434;2023-03-21T04:09:24;99154.19;;;8.76;100.00
33280;BME280;20403;43.114;12.434;2023-03-21T04:11:49;99159.16;;;8.78;100.00
33280;BME280;20403;43.114;12.434;2023-03-21T04:14:15;99160.94;;;8.84;100.00
33280;BME280;20403;43.114;12.434;2023-03-21T04:16:40;99167.31;;;8.88;100.00
33280;BME280;20403;43.114;12.434;2023-03-21T04:19:06;99166.41;;;8.76;100.00
33280;BME280;20403;43.114;12.434;2023-03-21T04:21:31;99165.34;;;8.83;100.00
33280;BME280;20403;43.114;12.434;2023-03-21T04:23:57;99169.56;;;8.78;100.00
33280;BME280;20403;43.114;12.434;2023-03-21T04:26:23;99172.03;;;8.66;100.00
33280;BME280;20403;43.114;12.434;2023-03-21T04:28:49;99171.47;;;8.57;100.00
33280;BME280;20403;43.114;12.434;2023-03-21T04:31:16;99168.72;;;8.39;100.00
33280;BME280;20403;43.114;12.434;2023-03-21T04:33:45;99172.28;;;8.51;100.00
33280;BME280;20403;43.114;12.434;2023-03-21T04:36:12;99171.88;;;8.54;100.00
33280;BME280;20403;43.114;12.434;2023-03-21T04:38:49;99161.69;;;8.53;100.00
33280;BME280;20403;43.114;12.434;2023-03-21T04:41:15;99163.47;;;8.52;100.00
33280;BME280;20403;43.114;12.434;2023-03-21T04:43:40;99169.44;;;8.59;100.00
33280;BME280;20403;43.114;12.434;2023-03-21T04:46:05;99161.84;;;8.65;100.00
33280;BME280;20403;43.114;12.434;2023-03-21T04:48:31;99164.41;;;8.71;100.00
33280;BME280;20403;43.114;12.434;2023-03-21T04:50:56;99166.34;;;8.82;100.00
33280;BME280;20403;43.114;12.434;2023-03-21T04:53:22;99164.00;;;8.74;100.00
33280;BME280;20403;43.114;12.434;2023-03-21T04:55:47;99163.59;;;8.71;100.00
33280;BME280;20403;43.114;12.434;2023-03-21T04:58:13;99171.19;;;8.72;100.00
33280;BME280;20403;43.114;12.434;2023-03-21T05:00:38;99173.38;;;8.75;100.00
33280;BME280;20403;43.114;12.434;2023-03-21T05:03:05;99189.50;;;8.91;100.00
33280;BME280;20403;43.114;12.434;2023-03-21T05:05:36;99178.25;;;9.03;100.00
33280;BME280;20403;43.114;12.434;2023-03-21T05:08:02;99179.66;;;8.99;100.00
33280;BME280;20403;43.114;12.434;2023-03-21T05:10:27;99188.81;;;9.09;100.00
33280;BME280;20403;43.114;12.434;2023-03-21T05:12:53;99185.00;;;9.11;100.00
33280;BME280;20403;43.114;12.434;2023-03-21T05:15:18;99183.03;;;9.07;100.00
33280;BME280;20403;43.114;12.434;2023-03-21T05:17:43;99190.53;;;9.21;100.00
33280;BME280;20403;43.114;12.434;2023-03-21T05:20:13;99189.09;;;9.25;100.00
33280;BME280;20403;43.114;12.434;2023-03-21T05:22:41;99195.44;;;9.36;100.00
33280;BME280;20403;43.114;12.434;2023-03-21T05:25:10;99194.97;;;9.46;100.00
33280;BME280;20403;43.114;12.434;2023-03-21T05:27:37;99201.72;;;9.54;100.00
33280;BME280;20403;43.114;12.434;2023-03-21T05:30:15;99207.72;;;9.54;100.00
33280;BME280;20403;43.114;12.434;2023-03-21T05:32:40;99210.84;;;9.63;100.00
33280;BME280;20403;43.114;12.434;2023-03-21T05:35:06;99211.00;;;9.68;100.00
33280;BME280;20403;43.114;12.434;2023-03-21T05:37:32;99213.06;;;9.66;100.00
33280;BME280;20403;43.114;12.434;2023-03-21T05:39:57;99209.22;;;9.68;100.00
33280;BME280;20403;43.114;12.434;2023-03-21T05:42:22;99215.22;;;9.69;100.00
33280;BME280;20403;43.114;12.434;2023-03-21T05:44:48;99205.09;;;9.79;100.00
33280;BME280;20403;43.114;12.434;2023-03-21T05:47:15;99221.13;;;9.83;100.00
33280;BME280;20403;43.114;12.434;2023-03-21T05:49:41;99211.81;;;9.94;100.00
33280;BME280;20403;43.114;12.434;2023-03-21T05:52:07;99221.22;;;9.95;100.00
33280;BME280;20403;43.114;12.434;2023-03-21T05:54:33;99219.00;;;9.98;100.00
33280;BME280;20403;43.114;12.434;2023-03-21T05:56:58;99204.34;;;9.97;100.00
33280;BME280;20403;43.114;12.434;2023-03-21T05:59:23;99214.88;;;10.09;100.00
33280;BME280;20403;43.114;12.434;2023-03-21T06:01:49;99221.50;;;10.05;100.00
33280;BME280;20403;43.114;12.434;2023-03-21T06:04:14;99213.50;;;10.06;100.00
33280;BME280;20403;43.114;12.434;2023-03-21T06:06:40;99210.91;;;10.25;100.00
33280;BME280;20403;43.114;12.434;2023-03-21T06:09:05;99202.84;;;10.33;100.00
33280;BME280;20403;43.114;12.434;2023-03-21T06:11:36;99205.94;;;10.42;100.00
33280;BME280;20403;43.114;12.434;2023-03-21T06:14:02;99201.94;;;10.39;100.00
33280;BME280;20403;43.114;12.434;2023-03-21T06:16:28;99204.34;;;10.41;100.00
33280;BME280;20403;43.114;12.434;2023-03-21T06:18:54;99202.91;;;10.45;100.00
33280;BME280;20403;43.114;12.434;2023-03-21T06:21:20;99204.88;;;10.49;100.00
33280;BME280;20403;43.114;12.434;2023-03-21T06:23:46;99206.22;;;10.52;100.00
33280;BME280;20403;43.114;12.434;2023-03-21T06:26:12;99212.16;;;10.41;100.00
33280;BME280;20403;43.114;12.434;2023-03-21T06:28:38;99208.53;;;10.42;100.00
33280;BME280;20403;43.114;12.434;2023-03-21T06:31:04;99211.31;;;10.47;100.00
33280;BME280;20403;43.114;12.434;2023-03-21T06:33:30;99212.97;;;10.60;100.00
33280;BME280;20403;43.114;12.434;2023-03-21T06:35:56;99225.00;;;11.09;100.00
33280;BME280;20403;43.114;12.434;2023-03-21T06:38:22;99220.00;;;11.73;100.00
33280;BME280;20403;43.114;12.434;2023-03-21T06:40:48;99210.09;;;12.58;100.00
33280;BME280;20403;43.114;12.434;2023-03-21T06:43:14;99201.84;;;13.07;100.00
33280;BME280;20403;43.114;12.434;2023-03-21T06:45:41;99201.22;;;13.45;100.00
33280;BME280;20403;43.114;12.434;2023-03-21T06:48:06;99188.50;;;13.54;100.00
33280;BME280;20403;43.114;12.434;2023-03-21T06:50:32;99194.38;;;13.61;100.00
33280;BME280;20403;43.114;12.434;2023-03-21T06:52:57;99197.94;;;13.72;100.00
33280;BME280;20403;43.114;12.434;2023-03-21T06:55:24;99195.91;;;14.13;100.00
33280;BME280;20403;43.114;12.434;2023-03-21T06:58:00;99193.31;;;13.79;100.00
33280;BME280;20403;43.114;12.434;2023-03-21T07:00:25;99198.75;;;13.55;100.00
33280;BME280;20403;43.114;12.434;2023-03-21T07:02:51;99200.00;;;13.70;100.00
33280;BME280;20403;43.114;12.434;2023-03-21T07:05:17;99195.78;;;13.35;100.00
33280;BME280;20403;43.114;12.434;2023-03-21T07:07:43;99199.31;;;12.83;100.00
33280;BME280;20403;43.114;12.434;2023-03-21T07:10:09;99202.91;;;12.65;100.00
33280;BME280;20403;43.114;12.434;2023-03-21T07:12:34;99199.31;;;12.43;100.00
33280;BME280;20403;43.114;12.434;2023-03-21T07:15:04;99201.03;;;12.49;100.00
33280;BME280;20403;43.114;12.434;2023-03-21T07:17:31;99194.44;;;12.75;100.00
33280;BME280;20403;43.114;12.434;2023-03-21T07:19:56;99201.84;;;13.23;100.00
33280;BME280;20403;43.114;12.434;2023-03-21T07:22:21;99201.44;;;13.77;100.00
33280;BME280;20403;43.114;12.434;2023-03-21T07:24:47;99203.44;;;14.09;100.00
33280;BME280;20403;43.114;12.434;2023-03-21T07:27:16;99197.19;;;14.32;100.00
33280;BME280;20403;43.114;12.434;2023-03-21T07:29:41;99203.47;;;14.53;100.00
33280;BME280;20403;43.114;12.434;2023-03-21T07:32:08;99195.56;;;14.70;100.00
33280;BME280;20403;43.114;12.434;2023-03-21T07:34:33;99193.25;;;15.01;100.00
33280;BME280;20403;43.114;12.434;2023-03-21T07:36:59;99203.38;;;15.14;100.00
33280;BME280;20403;43.114;12.434;2023-03-21T07:39:25;99203.22;;;15.26;100.00
33280;BME280;20403;43.114;12.434;2023-03-21T07:41:51;99203.50;;;15.29;100.00
33280;BME280;20403;43.114;12.434;2023-03-21T07:44:20;99207.03;;;15.45;100.00
33280;BME280;20403;43.114;12.434;2023-03-21T07:46:45;99203.75;;;15.60;100.00
33280;BME280;20403;43.114;12.434;2023-03-21T07:49:10;99194.84;;;15.66;100.00
33280;BME280;20403;43.114;12.434;2023-03-21T07:51:36;99206.09;;;15.94;100.00
33280;BME280;20403;43.114;12.434;2023-03-21T07:54:01;99201.69;;;16.05;100.00
33280;BME280;20403;43.114;12.434;2023-03-21T07:56:27;99197.88;;;16.28;100.00
33280;BME280;20403;43.114;12.434;2023-03-21T07:58:53;99201.59;;;16.37;100.00
33280;BME280;20403;43.114;12.434;2023-03-21T08:01:18;99204.16;;;16.22;100.00
33280;BME280;20403;43.114;12.434;2023-03-21T08:03:45;99214.47;;;15.86;100.00
33280;BME280;20403;43.114;12.434;2023-03-21T08:06:12;99221.97;;;16.09;100.00
33280;BME280;20403;43.114;12.434;2023-03-21T08:08:37;99223.66;;;16.31;100.00
33280;BME280;20403;43.114;12.434;2023-03-21T08:11:03;99221.56;;;16.33;100.00
33280;BME280;20403;43.114;12.434;2023-03-21T08:13:29;99227.94;;;16.42;100.00
33280;BME280;20403;43.114;12.434;2023-03-21T08:15:55;99222.75;;;16.63;100.00
33280;BME280;20403;43.114;12.434;2023-03-21T08:18:20;99227.59;;;16.86;100.00
33280;BME280;20403;43.114;12.434;2023-03-21T08:20:50;99226.31;;;17.14;100.00
33280;BME280;20403;43.114;12.434;2023-03-21T08:23:16;99219.22;;;17.25;100.00
33280;BME280;20403;43.114;12.434;2023-03-21T08:25:41;99219.50;;;17.29;100.00
33280;BME280;20403;43.114;12.434;2023-03-21T08:28:06;99227.16;;;17.46;100.00
33280;BME280;20403;43.114;12.434;2023-03-21T08:30:32;99219.25;;;17.66;100.00
33280;BME280;20403;43.114;12.434;2023-03-21T08:32:58;99227.69;;;17.83;100.00
33280;BME280;20403;43.114;12.434;2023-03-21T08:35:24;99221.59;;;17.98;100.00
33280;BME280;20403;43.114;12.434;2023-03-21T08:37:49;99227.66;;;17.27;100.00
33280;BME280;20403;43.114;12.434;2023-03-21T08:40:17;99227.69;;;16.49;100.00
33280;BME280;20403;43.114;12.434;2023-03-21T08:42:44;99227.00;;;16.11;100.00
33280;BME280;20403;43.114;12.434;2023-03-21T08:45:12;99228.16;;;15.88;100.00
33280;BME280;20403;43.114;12.434;2023-03-21T08:47:38;99228.22;;;15.66;100.00
33280;BME280;20403;43.114;12.434;2023-03-21T08:50:06;99226.25;;;15.46;100.00
33280;BME280;20403;43.114;12.434;2023-03-21T08:52:32;99220.94;;;15.41;100.00
33280;BME280;20403;43.114;12.434;2023-03-21T08:54:57;99220.09;;;15.35;100.00
33280;BME280;20403;43.114;12.434;2023-03-21T08:57:23;99215.63;;;15.36;100.00
33280;BME280;20403;43.114;12.434;2023-03-21T08:59:48;99218.22;;;15.30;100.00
33280;BME280;20403;43.114;12.434;2023-03-21T09:02:15;99223.47;;;15.30;100.00
33280;BME280;20403;43.114;12.434;2023-03-21T09:04:42;99219.34;;;15.40;100.00
33280;BME280;20403;43.114;12.434;2023-03-21T09:07:08;99223.56;;;15.41;100.00
33280;BME280;20403;43.114;12.434;2023-03-21T09:09:35;99224.81;;;15.33;100.00
33280;BME280;20403;43.114;12.434;2023-03-21T09:12:01;99220.97;;;15.13;100.00
33280;BME280;20403;43.114;12.434;2023-03-21T09:14:27;99229.63;;;15.14;100.00
33280;BME280;20403;43.114;12.434;2023-03-21T09:16:53;99217.13;;;15.26;100.00
33280;BME280;20403;43.114;12.434;2023-03-21T09:19:18;99217.47;;;15.67;100.00
33280;BME280;20403;43.114;12.434;2023-03-21T09:21:43;99221.03;;;15.83;100.00
33280;BME280;20403;43.114;12.434;2023-03-21T09:24:09;99221.28;;;15.82;100.00
33280;BME280;20403;43.114;12.434;2023-03-21T09:26:37;99216.00;;;15.77;100.00
33280;BME280;20403;43.114;12.434;2023-03-21T09:29:02;99220.19;;;15.78;100.00
33280;BME280;20403;43.114;12.434;2023-03-21T09:31:30;99212.59;;;15.81;100.00
33280;BME280;20403;43.114;12.434;2023-03-21T09:33:56;99211.91;;;15.96;100.00
33280;BME280;20403;43.114;12.434;2023-03-21T09:36:22;99211.56;;;15.87;100.00
33280;BME280;20403;43.114;12.434;2023-03-21T09:38:49;99212.06;;;15.79;100.00
33280;BME280;20403;43.114;12.434;2023-03-21T09:47:02;99217.66;;;15.88;100.00
33280;BME280;20403;43.114;12.434;2023-03-21T09:49:32;99206.16;;;16.04;100.00
33280;BME280;20403;43.114;12.434;2023-03-21T09:52:05;99211.13;;;16.01;100.00
33280;BME280;20403;43.114;12.434;2023-03-21T09:54:41;99213.19;;;15.88;100.00
33280;BME280;20403;43.114;12.434;2023-03-21T09:57:34;99209.13;;;16.18;100.00
33280;BME280;20403;43.114;12.434;2023-03-21T10:00:06;99203.63;;;16.88;100.00
33280;BME280;20403;43.114;12.434;2023-03-21T10:02:42;99192.63;;;17.68;100.00
33280;BME280;20403;43.114;12.434;2023-03-21T10:05:16;99204.03;;;18.43;100.00
33280;BME280;20403;43.114;12.434;2023-03-21T10:07:45;99198.34;;;18.81;100.00
33280;BME280;20403;43.114;12.434;2023-03-21T10:10:24;99205.88;;;19.37;100.00
33280;BME280;20403;43.114;12.434;2023-03-21T10:12:53;99211.84;;;19.19;90.70
33280;BME280;20403;43.114;12.434;2023-03-21T10:15:21;99201.09;;;19.05;95.26
33280;BME280;20403;43.114;12.434;2023-03-21T10:18:07;99211.75;;;19.34;97.78
33280;BME280;20403;43.114;12.434;2023-03-21T10:20:34;99211.59;;;19.49;100.00
33280;BME280;20403;43.114;12.434;2023-03-21T10:23:03;99210.72;;;18.91;92.39
33280;BME280;20403;43.114;12.434;2023-03-21T10:27:58;99212.38;;;17.96;100.00
33280;BME280;20403;43.114;12.434;2023-03-21T10:30:39;99204.25;;;18.52;100.00
33280;BME280;20403;43.114;12.434;2023-03-21T10:33:07;99205.25;;;19.16;100.00
33280;BME280;20403;43.114;12.434;2023-03-21T10:35:37;99215.31;;;19.83;100.00
33280;BME280;20403;43.114;12.434;2023-03-21T10:38:04;99223.78;;;19.80;87.78
33280;BME280;20403;43.114;12.434;2023-03-21T10:40:30;99209.44;;;20.58;88.16
33280;BME280;20403;43.114;12.434;2023-03-21T10:43:35;99220.56;;;20.36;80.57
33280;BME280;20403;43.114;12.434;2023-03-21T10:46:08;99212.72;;;20.26;84.47
33280;BME280;20403;43.114;12.434;2023-03-21T10:48:38;99218.84;;;19.34;87.27
33280;BME280;20403;43.114;12.434;2023-03-21T10:51:05;99219.25;;;19.17;98.79
33280;BME280;20403;43.114;12.434;2023-03-21T10:53:37;99222.63;;;18.88;99.69
33280;BME280;20403;43.114;12.434;2023-03-21T10:56:05;99211.97;;;18.98;100.00
33280;BME280;20403;43.114;12.434;2023-03-21T10:58:35;99216.00;;;19.59;99.42
33280;BME280;20403;43.114;12.434;2023-03-21T11:01:05;99212.63;;;20.36;86.96
33280;BME280;20403;43.114;12.434;2023-03-21T11:03:38;99211.34;;;20.76;87.92
33280;BME280;20403;43.114;12.434;2023-03-21T11:09:06;99202.69;;;21.74;76.05
33280;BME280;20403;43.114;12.434;2023-03-21T11:14:42;99204.06;;;22.13;64.90
33280;BME280;20403;43.114;12.434;2023-03-21T11:19:51;99193.91;;;21.60;66.36
33280;BME280;20403;43.114;12.434;2023-03-21T11:22:23;99192.75;;;21.66;70.63
33280;BME280;20403;43.114;12.434;2023-03-21T11:24:55;99180.75;;;21.82;65.39
33280;BME280;20403;43.114;12.434;2023-03-21T11:27:22;99179.66;;;21.56;66.07
33280;BME280;20403;43.114;12.434;2023-03-21T11:29:49;99181.53;;;21.36;68.90
33280;BME280;20403;43.114;12.434;2023-03-21T11:34:55;99174.13;;;21.52;65.36
33280;BME280;20403;43.114;12.434;2023-03-21T11:42:46;99156.09;;;21.96;66.08
33280;BME280;20403;43.114;12.434;2023-03-21T11:47:41;99154.31;;;21.77;63.54
33280;BME280;20403;43.114;12.434;2023-03-21T11:50:28;99151.41;;;20.62;68.34
33280;BME280;20403;43.114;12.434;2023-03-21T11:55:46;99146.63;;;20.40;74.15
33280;BME280;20403;43.114;12.434;2023-03-21T12:06:44;99145.19;;;18.38;100.00
33280;BME280;20403;43.114;12.434;2023-03-21T12:19:55;99117.28;;;19.69;91.21
33280;BME280;20403;43.114;12.434;2023-03-21T12:22:48;99110.28;;;20.45;87.66
33280;BME280;20403;43.114;12.434;2023-03-21T12:25:31;99099.88;;;20.49;75.57
33280;BME280;20403;43.114;12.434;2023-03-21T12:38:39;99089.34;;;21.75;62.92
33280;BME280;20403;43.114;12.434;2023-03-21T12:43:57;99087.06;;;21.82;63.63
33280;BME280;20403;43.114;12.434;2023-03-21T12:46:41;99091.66;;;21.49;64.38
33280;BME280;20403;43.114;12.434;2023-03-21T12:51:42;99088.44;;;19.91;74.57
33280;BME280;20403;43.114;12.434;2023-03-21T12:54:28;99078.97;;;20.28;72.14
33280;BME280;20403;43.114;12.434;2023-03-21T12:57:10;99078.31;;;20.93;73.18
33280;BME280;20403;43.114;12.434;2023-03-21T13:02:27;99074.09;;;21.80;66.65
33280;BME280;20403;43.114;12.434;2023-03-21T13:07:22;99075.38;;;21.69;66.81
33280;BME280;20403;43.114;12.434;2023-03-21T13:09:49;99074.59;;;21.69;61.07
33280;BME280;20403;43.114;12.434;2023-03-21T13:12:39;99075.00;;;21.15;68.89
33280;BME280;20403;43.114;12.434;2023-03-21T13:17:41;99066.22;;;21.61;63.43
33280;BME280;20403;43.114;12.434;2023-03-21T13:20:36;99061.59;;;21.67;61.99
33280;BME280;20403;43.114;12.434;2023-03-21T13:23:06;99055.72;;;21.56;61.36
33280;BME280;20403;43.114;12.434;2023-03-21T13:25:40;99049.03;;;21.87;60.70
33280;BME280;20403;43.114;12.434;2023-03-21T13:28:22;99046.78;;;21.66;60.66
33280;BME280;20403;43.114;12.434;2023-03-21T13:30:50;99041.16;;;21.81;60.89
33280;BME280;20403;43.114;12.434;2023-03-21T13:33:27;99035.38;;;21.79;60.15
33280;BME280;20403;43.114;12.434;2023-03-21T13:36:04;99036.75;;;21.77;60.02
33280;BME280;20403;43.114;12.434;2023-03-21T13:38:35;99030.19;;;21.60;59.12
33280;BME280;20403;43.114;12.434;2023-03-21T13:41:17;99029.84;;;21.76;60.38
33280;BME280;20403;43.114;12.434;2023-03-21T13:56:47;99018.09;;;20.80;60.75
33280;BME280;20403;43.114;12.434;2023-03-21T13:59:18;99011.16;;;20.65;62.35
33280;BME280;20403;43.114;12.434;2023-03-21T14:04:41;99004.69;;;21.32;65.03
33280;BME280;20403;43.114;12.434;2023-03-21T14:07:10;99002.44;;;21.39;64.31
33280;BME280;20403;43.114;12.434;2023-03-21T14:09:39;98998.31;;;21.19;66.59
33280;BME280;20403;43.114;12.434;2023-03-21T14:12:30;98992.31;;;21.13;63.42
33280;BME280;20403;43.114;12.434;2023-03-21T14:15:02;98984.56;;;21.03;61.46
33280;BME280;20403;43.114;12.434;2023-03-21T14:17:30;98987.25;;;20.70;64.49
33280;BME280;20403;43.114;12.434;2023-03-21T14:20:00;98995.50;;;20.50;67.79
33280;BME280;20403;43.114;12.434;2023-03-21T14:22:26;98991.22;;;20.35;66.78
33280;BME280;20403;43.114;12.434;2023-03-21T14:24:58;98980.47;;;20.64;66.47
33280;BME280;20403;43.114;12.434;2023-03-21T14:27:28;98989.47;;;20.63;68.18
33280;BME280;20403;43.114;12.434;2023-03-21T14:29:55;98987.47;;;20.55;64.59
33280;BME280;20403;43.114;12.434;2023-03-21T14:32:25;98981.09;;;20.75;66.42
33280;BME280;20403;43.114;12.434;2023-03-21T14:34:53;98981.81;;;20.62;66.84
33280;BME280;20403;43.114;12.434;2023-03-21T14:37:36;98991.47;;;20.71;69.00
33280;BME280;20403;43.114;12.434;2023-03-21T14:40:17;98985.03;;;20.59;63.03
33280;BME280;20403;43.114;12.434;2023-03-21T14:42:45;98989.84;;;20.38;68.30
33280;BME280;20403;43.114;12.434;2023-03-21T14:45:21;98986.38;;;19.85;66.91
33280;BME280;20403;43.114;12.434;2023-03-21T14:48:14;98987.38;;;19.46;78.57
33280;BME280;20403;43.114;12.434;2023-03-21T14:50:49;98983.59;;;19.52;72.36
33280;BME280;20403;43.114;12.434;2023-03-21T14:53:20;98980.00;;;19.43;73.46
33280;BME280;20403;43.114;12.434;2023-03-21T14:55:51;98977.16;;;19.10;65.36
33280;BME280;20403;43.114;12.434;2023-03-21T14:58:18;98977.38;;;18.90;75.28